39VA weather

Kingstowne Heliport
Kingstowne, Virginia, United States

Public forecast

Using degrees Fahrenheit for public forecast. Weather courtesy of forecast.io.

METAR (pilot weather report)

Closest report is Davison Army Air Field, 3.9 nm (7.2 km) SSW. Retrieved 2019/05/20 07:56 UTC (32 minutes ago):

KDAA 200756Z AUTO 19006KT 10SM CLR 24/18 A2989 RMK AO2 SLP124 T02380175 $

TAF (pilot weather forecast)

Forecast is more than 12 hours old.

Closest forecast is Davison Army Air Field, 3.9 nm (7.2 km) SSW. Retrieved 2019/05/18 01:21 UTC (2 days ago):

TAF KDAA 180100Z 1801/1907 VRB06KT 9999 FEW045 SCT095 QNH2982INS BECMG 1808/1809 20006KT 9999 BKN030 QNH3002INS BECMG 1817/1818 13006KT 9999 BKN040 QNH3002INS TX28/1820Z TN19/1808Z LAST NO AMDS AFT 1801 NEXT 2009